createdAt,value
2023-05-23T00:02:25.114Z,9.50
2023-05-23T00:04:58.695Z,8.50
2023-05-23T00:07:27.559Z,8.13
2023-05-23T00:09:55.539Z,7.83
2023-05-23T00:12:24.885Z,6.90
2023-05-23T00:14:55.753Z,6.37
2023-05-23T00:17:25.611Z,6.47
2023-05-23T00:19:56.229Z,6.27
2023-05-23T00:22:24.304Z,6.20
2023-05-23T00:24:52.169Z,6.63
2023-05-23T00:27:20.117Z,5.80
2023-05-23T00:29:49.384Z,5.73
2023-05-23T00:32:17.363Z,6.47
2023-05-23T00:34:45.783Z,4.87
2023-05-23T00:37:13.635Z,6.30
2023-05-23T00:39:41.902Z,6.40
2023-05-23T00:42:10.148Z,4.70
2023-05-23T00:44:38.096Z,4.30
2023-05-23T00:47:08.965Z,4.13
2023-05-23T00:49:37.104Z,4.43
2023-05-23T00:52:05.943Z,3.80
2023-05-23T00:54:34.768Z,3.90
2023-05-23T00:57:02.799Z,3.60
2023-05-23T00:59:31.479Z,4.03
2023-05-23T01:02:00.798Z,3.70
2023-05-23T01:04:30.652Z,3.43
2023-05-23T01:06:58.822Z,3.60
2023-05-23T01:12:22.168Z,3.87
2023-05-23T01:14:57.560Z,3.47
2023-05-23T01:17:30.733Z,3.50
2023-05-23T01:20:10.033Z,3.43
2023-05-23T01:23:00.580Z,3.73
2023-05-23T01:25:59.340Z,4.10
2023-05-23T01:28:32.468Z,4.23
2023-05-23T01:31:04.777Z,4.40
2023-05-23T01:33:33.874Z,4.47
2023-05-23T01:36:03.860Z,4.10
2023-05-23T01:38:31.976Z,3.83
2023-05-23T01:40:59.948Z,3.80
2023-05-23T01:43:29.366Z,4.10
2023-05-23T01:45:58.680Z,3.63
2023-05-23T01:48:28.878Z,3.90
2023-05-23T01:50:57.515Z,4.83
2023-05-23T01:53:26.638Z,4.03
2023-05-23T01:55:54.696Z,4.50
2023-05-23T01:58:22.972Z,4.80
2023-05-23T02:00:52.432Z,5.33
2023-05-23T02:03:20.941Z,4.50
2023-05-23T02:05:48.988Z,5.73
2023-05-23T02:08:17.258Z,5.33
2023-05-23T02:10:45.175Z,5.37
2023-05-23T02:13:13.288Z,5.57
2023-05-23T02:15:41.375Z,4.37
2023-05-23T02:18:10.773Z,5.40
2023-05-23T02:20:38.676Z,4.90
2023-05-23T02:23:07.053Z,4.97
2023-05-23T02:25:35.007Z,4.50
2023-05-23T02:28:02.913Z,4.60
2023-05-23T02:30:30.883Z,3.90
2023-05-23T02:32:59.378Z,3.57
2023-05-23T02:35:30.790Z,3.37
2023-05-23T02:37:59.043Z,3.13
2023-05-23T02:40:26.920Z,3.47
2023-05-23T02:42:57.399Z,3.10
2023-05-23T02:45:25.676Z,2.87
2023-05-23T02:47:53.645Z,3.07
2023-05-23T02:50:21.663Z,3.57
2023-05-23T02:52:51.053Z,3.30
2023-05-23T02:55:18.984Z,3.20
2023-05-23T02:57:46.912Z,4.30
2023-05-23T03:00:15.841Z,4.30
2023-05-23T03:02:43.928Z,5.10
2023-05-23T03:05:11.940Z,6.27
2023-05-23T03:07:39.872Z,6.00
2023-05-23T03:10:10.811Z,7.73
2023-05-23T03:12:38.887Z,9.70
2023-05-23T03:15:07.852Z,10.97
2023-05-23T03:17:35.960Z,12.03
2023-05-23T03:20:12.291Z,12.80
2023-05-23T03:22:42.040Z,13.23
2023-05-23T03:25:11.564Z,11.27
2023-05-23T03:27:39.517Z,12.67
2023-05-23T03:30:09.322Z,14.70
2023-05-23T03:32:37.818Z,14.83
2023-05-23T03:35:06.406Z,14.53
2023-05-23T03:37:34.394Z,8.83
2023-05-23T03:40:02.463Z,13.43
2023-05-23T03:42:32.254Z,13.97
2023-05-23T03:45:00.154Z,12.87
2023-05-23T03:47:28.156Z,13.57
2023-05-23T03:49:56.133Z,16.13
2023-05-23T03:52:24.197Z,16.93
2023-05-23T03:54:52.417Z,16.03
2023-05-23T03:57:20.369Z,16.63
2023-05-23T03:59:49.664Z,16.80
2023-05-23T04:02:17.679Z,18.73
2023-05-23T04:04:47.048Z,14.97
2023-05-23T04:07:15.856Z,15.83
2023-05-23T04:09:43.921Z,16.23
2023-05-23T04:12:12.096Z,15.03
2023-05-23T04:14:40.260Z,16.93
2023-05-23T04:17:10.250Z,16.13
2023-05-23T04:19:38.308Z,16.80
2023-05-23T04:22:06.962Z,15.20
2023-05-23T04:24:34.978Z,12.13
2023-05-23T04:27:02.865Z,14.23
2023-05-23T04:29:31.743Z,15.03
2023-05-23T04:32:00.013Z,14.40
2023-05-23T04:34:31.032Z,15.50
2023-05-23T04:36:59.054Z,13.67
2023-05-23T04:39:27.616Z,12.70
2023-05-23T04:41:55.546Z,12.23
2023-05-23T04:44:23.489Z,11.83
2023-05-23T04:46:51.549Z,13.43
2023-05-23T04:49:21.510Z,12.50
2023-05-23T04:51:51.344Z,11.80
2023-05-23T04:54:19.272Z,11.00
2023-05-23T04:56:47.370Z,12.70
2023-05-23T04:59:15.538Z,13.80
2023-05-23T05:01:43.475Z,14.20
2023-05-23T05:04:11.444Z,12.00
2023-05-23T05:06:39.387Z,11.70
2023-05-23T05:09:08.653Z,13.30
2023-05-23T05:11:36.568Z,12.20
2023-05-23T05:14:04.570Z,13.70
2023-05-23T05:16:32.911Z,11.53
2023-05-23T05:19:00.967Z,12.47
2023-05-23T05:21:28.993Z,12.40
2023-05-23T05:23:56.924Z,13.00
2023-05-23T05:26:26.965Z,13.33
2023-05-23T05:28:55.155Z,12.60
2023-05-23T05:31:23.132Z,13.03
2023-05-23T05:33:51.990Z,13.00
2023-05-23T05:36:21.678Z,11.37
2023-05-23T05:38:49.584Z,12.23
2023-05-23T05:41:17.549Z,11.53
2023-05-23T05:43:46.838Z,12.77
2023-05-23T05:46:14.815Z,12.97
2023-05-23T05:48:42.955Z,11.17
2023-05-23T05:51:10.931Z,9.90
2023-05-23T05:53:38.873Z,10.47
2023-05-23T05:56:09.410Z,9.80
2023-05-23T05:58:37.430Z,9.33
2023-05-23T06:01:06.881Z,9.23
2023-05-23T06:03:35.333Z,8.67
2023-05-23T06:06:03.494Z,9.40
2023-05-23T06:08:31.369Z,8.53
2023-05-23T06:10:59.269Z,9.77
2023-05-23T06:13:27.190Z,10.20
2023-05-23T06:15:55.222Z,10.77
2023-05-23T06:18:24.525Z,10.47
2023-05-23T06:20:52.458Z,10.87
2023-05-23T06:23:20.387Z,10.90
2023-05-23T06:25:48.368Z,10.77
2023-05-23T06:28:16.309Z,11.33
2023-05-23T06:30:44.544Z,12.23
2023-05-23T06:33:13.379Z,13.23
2023-05-23T06:35:42.757Z,11.83
2023-05-23T06:38:10.759Z,12.50
2023-05-23T06:40:38.883Z,13.13
2023-05-23T06:43:07.065Z,12.83
2023-05-23T06:45:36.251Z,13.00
2023-05-23T06:48:04.290Z,12.30
2023-05-23T06:50:32.268Z,12.20
2023-05-23T06:53:01.554Z,15.13
2023-05-23T06:55:30.538Z,14.10
2023-05-23T06:57:58.549Z,13.50
2023-05-23T07:00:26.755Z,13.97
2023-05-23T07:02:54.786Z,14.30
2023-05-23T07:05:22.891Z,13.97
2023-05-23T07:07:50.958Z,13.97
2023-05-23T07:10:21.232Z,13.63
2023-05-23T07:12:49.377Z,12.30
2023-05-23T07:15:17.534Z,12.60
2023-05-23T07:17:45.848Z,14.87
2023-05-23T07:20:13.792Z,12.30
2023-05-23T07:22:41.736Z,13.77
2023-05-23T07:25:10.251Z,13.27
2023-05-23T07:27:39.745Z,13.13
2023-05-23T07:30:10.630Z,12.77
2023-05-23T07:32:39.234Z,14.20
2023-05-23T07:35:08.266Z,13.73
2023-05-23T07:37:36.313Z,12.70
2023-05-23T07:40:06.220Z,10.80
2023-05-23T07:42:34.147Z,12.03
2023-05-23T07:45:03.792Z,11.30
2023-05-23T07:47:31.730Z,10.63
2023-05-23T07:50:02.296Z,10.23
2023-05-23T07:52:31.311Z,11.20
2023-05-23T07:54:59.472Z,10.10
2023-05-23T07:57:28.008Z,10.77
2023-05-23T07:59:55.969Z,11.00
2023-05-23T08:02:25.384Z,10.17
2023-05-23T08:04:53.511Z,11.60
2023-05-23T08:07:22.047Z,12.07
2023-05-23T08:09:50.004Z,12.73
2023-05-23T08:12:18.054Z,12.30
2023-05-23T08:14:51.676Z,13.63
2023-05-23T08:17:20.129Z,13.33
2023-05-23T08:19:49.611Z,12.87
2023-05-23T08:22:17.560Z,13.67
2023-05-23T08:24:45.544Z,14.47
2023-05-23T08:27:13.559Z,14.70
2023-05-23T08:29:42.238Z,15.50
2023-05-23T08:32:10.193Z,12.43
2023-05-23T08:34:38.193Z,14.37
2023-05-23T08:37:07.573Z,14.20
2023-05-23T08:39:35.454Z,13.30
2023-05-23T08:42:03.546Z,14.10
2023-05-23T08:44:31.540Z,14.60
2023-05-23T08:47:05.593Z,13.20
2023-05-23T08:49:33.717Z,12.30
2023-05-23T08:52:04.097Z,14.70
2023-05-23T08:54:34.291Z,11.63
2023-05-23T08:57:03.040Z,10.63
2023-05-23T08:59:32.762Z,10.50
2023-05-23T09:02:02.087Z,10.83
2023-05-23T09:04:32.482Z,10.50
2023-05-23T09:07:01.570Z,8.03
2023-05-23T09:09:29.540Z,8.00
2023-05-23T09:12:01.074Z,8.07
2023-05-23T09:14:30.595Z,8.27
2023-05-23T09:17:04.523Z,7.80
2023-05-23T09:19:33.594Z,8.80
2023-05-23T09:22:03.725Z,9.37
2023-05-23T09:24:36.266Z,6.63
2023-05-23T09:27:07.098Z,5.77
2023-05-23T09:29:38.748Z,4.47
2023-05-23T09:32:13.177Z,4.57
2023-05-23T09:34:44.283Z,3.30
2023-05-23T09:37:19.517Z,4.60
2023-05-23T09:39:48.768Z,4.33
2023-05-23T09:42:23.029Z,4.50
2023-05-23T09:44:51.290Z,3.23
2023-05-23T09:47:19.572Z,4.27
2023-05-23T09:49:48.258Z,3.80
2023-05-23T09:52:16.229Z,3.72
2023-05-23T09:54:44.537Z,3.67
2023-05-23T09:57:12.810Z,3.28
2023-05-23T09:59:43.611Z,3.65
2023-05-23T10:02:13.815Z,4.38
2023-05-23T10:04:43.121Z,3.75
2023-05-23T10:07:18.314Z,3.53
2023-05-23T10:09:52.207Z,3.83
2023-05-23T10:12:45.837Z,3.35
2023-05-23T10:15:18.019Z,2.67
2023-05-23T10:17:59.679Z,3.80
2023-05-23T10:20:32.217Z,3.90
2023-05-23T10:23:01.784Z,4.53
2023-05-23T10:25:29.867Z,3.60
2023-05-23T10:28:02.446Z,3.47
2023-05-23T10:30:33.641Z,3.40
2023-05-23T10:33:03.270Z,3.57
2023-05-23T10:35:43.756Z,3.40
2023-05-23T10:38:22.300Z,3.23
2023-05-23T10:40:56.366Z,3.03
2023-05-23T10:43:30.784Z,4.20
2023-05-23T10:46:00.086Z,3.30
2023-05-23T10:48:35.586Z,2.80
2023-05-23T10:51:07.970Z,3.08
2023-05-23T10:53:37.872Z,3.00
2023-05-23T10:56:09.597Z,3.42
2023-05-23T10:58:39.026Z,3.35
2023-05-23T11:01:09.506Z,2.80
2023-05-23T11:03:39.324Z,3.10
2023-05-23T11:06:07.952Z,3.20
2023-05-23T11:08:47.862Z,2.88
2023-05-23T11:11:16.653Z,2.95
2023-05-23T11:14:00.678Z,3.03
2023-05-23T11:16:32.005Z,3.28
2023-05-23T11:19:26.468Z,2.92
2023-05-23T11:21:56.241Z,3.63
2023-05-23T11:24:24.540Z,3.47
2023-05-23T11:27:00.307Z,3.50
2023-05-23T11:29:29.665Z,3.47
2023-05-23T11:31:59.484Z,3.28
2023-05-23T11:34:28.510Z,3.17
2023-05-23T11:36:57.643Z,2.87
2023-05-23T11:39:25.718Z,2.67
2023-05-23T11:42:03.320Z,3.00
2023-05-23T11:44:31.594Z,2.53
2023-05-23T11:47:05.174Z,3.05
2023-05-23T11:49:33.881Z,2.88
2023-05-23T11:52:03.379Z,2.58
2023-05-23T11:54:31.504Z,3.13
2023-05-23T11:56:59.650Z,3.70
2023-05-23T11:59:28.611Z,3.17
2023-05-23T12:01:56.875Z,2.97
2023-05-23T12:04:27.413Z,3.25
2023-05-23T12:06:55.711Z,3.13
2023-05-23T12:09:23.667Z,3.13
2023-05-23T12:11:52.222Z,3.50
2023-05-23T12:14:20.321Z,2.75
2023-05-23T12:16:48.496Z,3.45
2023-05-23T12:19:18.369Z,3.75
2023-05-23T12:21:49.421Z,2.90
2023-05-23T12:24:18.754Z,3.27
2023-05-23T12:26:54.416Z,3.10
2023-05-23T12:29:23.259Z,2.60
2023-05-23T12:31:52.574Z,3.20
2023-05-23T12:34:23.649Z,2.88
2023-05-23T12:37:06.271Z,3.00
2023-05-23T12:39:45.391Z,2.80
2023-05-23T12:42:13.400Z,2.83
2023-05-23T12:44:43.475Z,3.20
2023-05-23T12:47:11.908Z,2.60
2023-05-23T12:49:39.958Z,3.15
2023-05-23T12:52:09.307Z,2.83
2023-05-23T12:54:37.284Z,3.20
2023-05-23T12:57:05.284Z,2.65
2023-05-23T12:59:33.197Z,2.72
2023-05-23T13:02:01.909Z,2.65
2023-05-23T13:04:31.983Z,3.28
2023-05-23T13:07:00.374Z,3.13
2023-05-23T13:09:29.647Z,3.38
2023-05-23T13:11:58.892Z,3.17
2023-05-23T13:14:27.232Z,3.17
2023-05-23T13:16:55.279Z,3.10
2023-05-23T13:19:23.333Z,3.58
2023-05-23T13:21:51.413Z,2.90
2023-05-23T13:24:19.363Z,2.88
2023-05-23T13:26:48.635Z,3.45
2023-05-23T13:29:16.586Z,2.92
2023-05-23T13:31:44.617Z,2.55
2023-05-23T13:34:12.631Z,2.53
2023-05-23T13:36:40.812Z,3.10
2023-05-23T13:39:08.739Z,2.80
2023-05-23T13:41:36.709Z,3.50
2023-05-23T13:44:06.013Z,2.53
2023-05-23T13:46:34.401Z,2.33
2023-05-23T13:49:02.329Z,2.58
2023-05-23T13:51:30.299Z,3.03
2023-05-23T13:53:58.239Z,2.90
2023-05-23T13:56:26.150Z,2.75
2023-05-23T13:58:54.170Z,3.10
2023-05-23T14:01:24.472Z,2.78
2023-05-23T14:03:52.461Z,3.40
2023-05-23T14:06:20.361Z,3.25
2023-05-23T14:08:48.321Z,2.83
2023-05-23T14:11:16.262Z,3.08
2023-05-23T14:13:44.139Z,2.58
2023-05-23T14:16:12.125Z,3.08
2023-05-23T14:18:41.458Z,2.90
2023-05-23T14:21:09.384Z,3.42
2023-05-23T14:23:37.289Z,3.28
2023-05-23T14:26:05.643Z,3.38
2023-05-23T14:28:33.617Z,3.05
2023-05-23T14:31:01.769Z,3.45
2023-05-23T14:33:29.685Z,3.25
2023-05-23T14:36:00.970Z,3.10
2023-05-23T14:38:28.938Z,3.10
2023-05-23T14:40:56.838Z,2.67
2023-05-23T14:43:24.885Z,3.47
2023-05-23T14:45:52.936Z,3.50
2023-05-23T14:48:21.345Z,3.28
2023-05-23T14:50:50.522Z,2.85
2023-05-23T14:53:22.497Z,3.42
2023-05-23T14:55:51.004Z,3.22
2023-05-23T14:58:19.352Z,3.05
2023-05-23T15:00:49.420Z,3.63
2023-05-23T15:03:17.333Z,2.95
2023-05-23T15:05:48.443Z,3.08
2023-05-23T15:08:18.377Z,2.97
2023-05-23T15:10:47.728Z,2.93
2023-05-23T15:13:15.845Z,3.03
2023-05-23T15:15:43.863Z,3.42
2023-05-23T15:18:21.384Z,3.50
2023-05-23T15:20:56.257Z,2.90
2023-05-23T15:23:24.245Z,3.17
2023-05-23T15:25:53.761Z,3.38
2023-05-23T15:28:21.902Z,3.13
2023-05-23T15:30:50.091Z,3.13
2023-05-23T15:33:18.912Z,3.57
2023-05-23T15:35:47.344Z,3.00
2023-05-23T15:38:17.137Z,2.90
2023-05-23T15:40:49.024Z,3.20
2023-05-23T15:43:18.415Z,3.00
2023-05-23T15:45:46.449Z,3.10
2023-05-23T15:48:14.490Z,3.27
2023-05-23T15:50:42.495Z,3.30
2023-05-23T15:53:10.761Z,3.17
2023-05-23T15:55:41.218Z,3.30
2023-05-23T15:58:10.693Z,2.97
2023-05-23T16:00:40.506Z,2.80
2023-05-23T16:03:08.739Z,2.87
2023-05-23T16:05:39.082Z,3.10
2023-05-23T16:08:07.221Z,3.20
2023-05-23T16:10:35.155Z,3.40
2023-05-23T16:13:03.198Z,2.53
2023-05-23T16:15:31.310Z,3.27
2023-05-23T16:18:00.708Z,2.90
2023-05-23T16:20:28.648Z,3.57
2023-05-23T16:22:56.817Z,3.07
2023-05-23T16:25:24.693Z,3.20
2023-05-23T16:27:52.643Z,3.27
2023-05-23T16:30:20.912Z,3.00
2023-05-23T16:32:48.838Z,3.10
2023-05-23T16:35:18.194Z,3.10
2023-05-23T16:37:46.142Z,2.87
2023-05-23T16:40:14.099Z,2.90
2023-05-23T16:42:42.015Z,2.97
2023-05-23T16:45:10.422Z,3.70
2023-05-23T16:47:38.419Z,2.73
2023-05-23T16:50:08.522Z,3.27
2023-05-23T16:52:39.616Z,2.87
2023-05-23T16:55:08.248Z,3.50
2023-05-23T16:57:36.450Z,3.40
2023-05-23T17:00:05.580Z,3.10
2023-05-23T17:02:33.592Z,3.37
2023-05-23T17:05:01.660Z,3.17
2023-05-23T17:07:29.573Z,3.10
2023-05-23T17:09:58.823Z,3.57
2023-05-23T17:12:27.068Z,2.80
2023-05-23T17:14:55.038Z,3.70
2023-05-23T17:17:23.127Z,3.43
2023-05-23T17:19:51.462Z,3.20
2023-05-23T17:22:19.350Z,3.67
2023-05-23T17:24:47.250Z,2.93
2023-05-23T17:27:16.750Z,2.97
2023-05-23T17:29:44.691Z,3.20
2023-05-23T17:32:12.598Z,3.23
2023-05-23T17:34:40.639Z,3.57
2023-05-23T17:37:09.339Z,3.50
2023-05-23T17:39:37.219Z,3.20
2023-05-23T17:42:05.849Z,3.33
2023-05-23T17:44:35.090Z,3.53
2023-05-23T17:47:03.064Z,3.47
2023-05-23T17:49:31.035Z,3.67
2023-05-23T17:51:59.712Z,3.23
2023-05-23T17:54:27.633Z,3.00
2023-05-23T17:56:55.847Z,3.70
2023-05-23T17:59:27.290Z,3.50
2023-05-23T18:01:56.597Z,4.00
2023-05-23T18:04:25.122Z,3.10
2023-05-23T18:06:53.113Z,3.33
2023-05-23T18:09:21.502Z,3.93
2023-05-23T18:11:49.351Z,3.40
2023-05-23T18:14:17.246Z,3.50
2023-05-23T18:16:45.265Z,3.77
2023-05-23T18:19:14.669Z,4.60
2023-05-23T18:21:42.587Z,4.70
2023-05-23T18:24:11.870Z,4.17
2023-05-23T18:26:42.357Z,4.83
2023-05-23T18:29:10.405Z,4.80
2023-05-23T18:31:38.494Z,4.20
2023-05-23T18:34:06.953Z,4.37
2023-05-23T18:36:36.598Z,4.43
2023-05-23T18:39:05.398Z,4.57
2023-05-23T18:41:33.579Z,4.43
2023-05-23T18:44:01.510Z,5.37
2023-05-23T18:46:30.148Z,5.00
2023-05-23T18:48:58.590Z,5.13
2023-05-23T18:51:27.144Z,5.63
2023-05-23T18:53:56.386Z,6.00
2023-05-23T18:56:24.361Z,6.40
2023-05-23T18:58:52.526Z,5.53
2023-05-23T19:01:20.429Z,6.17
2023-05-23T19:03:48.582Z,5.93
2023-05-23T19:06:16.668Z,6.10
2023-05-23T19:08:44.565Z,5.50
2023-05-23T19:11:14.880Z,6.07
2023-05-23T19:13:42.832Z,5.47
2023-05-23T19:16:10.740Z,5.50
2023-05-23T19:18:38.791Z,4.70
2023-05-23T19:21:06.913Z,4.07
2023-05-23T19:23:34.858Z,3.97
2023-05-23T19:26:03.043Z,4.23
2023-05-23T19:28:32.377Z,5.03
2023-05-23T19:31:00.580Z,4.20
2023-05-23T19:33:28.574Z,4.37
2023-05-23T19:35:56.624Z,3.80
2023-05-23T19:38:24.762Z,4.57
2023-05-23T19:40:53.025Z,4.63
2023-05-23T19:43:21.078Z,4.60
2023-05-23T19:45:50.384Z,4.20
2023-05-23T19:48:18.616Z,4.23
2023-05-23T19:50:47.637Z,5.30
2023-05-23T19:53:15.616Z,4.83
2023-05-23T19:55:43.881Z,4.47
2023-05-23T19:58:11.884Z,4.83
2023-05-23T20:00:40.086Z,4.73
2023-05-23T20:03:09.694Z,4.50
2023-05-23T20:05:37.918Z,4.10
2023-05-23T20:08:05.955Z,5.00
2023-05-23T20:10:40.951Z,3.90
2023-05-23T20:13:08.939Z,4.37
2023-05-23T20:15:39.939Z,3.97
2023-05-23T20:18:10.006Z,4.60
2023-05-23T20:20:37.884Z,4.50
2023-05-23T20:23:06.767Z,3.73
2023-05-23T20:25:35.223Z,4.60
2023-05-23T20:28:03.149Z,4.33
2023-05-23T20:30:31.057Z,4.53
2023-05-23T20:32:59.216Z,4.00
2023-05-23T20:35:29.039Z,4.30
2023-05-23T20:37:57.183Z,4.00
2023-05-23T20:40:25.805Z,3.80
2023-05-23T20:42:53.780Z,4.10
2023-05-23T20:45:21.855Z,3.97
2023-05-23T20:47:49.746Z,4.20
2023-05-23T20:50:19.286Z,4.03
2023-05-23T20:52:48.777Z,4.30
2023-05-23T20:55:16.705Z,4.67
2023-05-23T20:57:44.673Z,4.60
2023-05-23T21:00:13.711Z,5.10
2023-05-23T21:02:42.473Z,4.50
2023-05-23T21:05:12.180Z,3.87
2023-05-23T21:07:40.540Z,4.50
2023-05-23T21:10:10.408Z,4.40
2023-05-23T21:12:38.351Z,4.57
2023-05-23T21:15:07.490Z,5.13
2023-05-23T21:17:35.442Z,4.53
2023-05-23T21:20:03.461Z,4.33
2023-05-23T21:22:31.516Z,4.70
2023-05-23T21:24:59.428Z,4.20
2023-05-23T21:27:29.322Z,4.83
2023-05-23T21:29:57.365Z,4.27
2023-05-23T21:32:25.294Z,4.53
2023-05-23T21:34:53.293Z,4.43
2023-05-23T21:37:21.233Z,5.10
2023-05-23T21:39:52.275Z,4.63
2023-05-23T21:42:21.330Z,4.63
2023-05-23T21:44:50.583Z,4.53
2023-05-23T21:47:18.470Z,4.13
2023-05-23T21:49:46.472Z,3.77
2023-05-23T21:52:14.486Z,4.07
2023-05-23T21:54:42.548Z,4.40
2023-05-23T21:57:10.532Z,4.33
2023-05-23T21:59:38.506Z,4.90
2023-05-23T22:02:08.263Z,4.40
2023-05-23T22:04:36.246Z,4.23
2023-05-23T22:07:04.264Z,4.70
2023-05-23T22:09:32.219Z,4.80
2023-05-23T22:12:00.208Z,5.30
2023-05-23T22:14:28.170Z,4.43
2023-05-23T22:16:56.229Z,4.07
2023-05-23T22:19:26.376Z,4.57
2023-05-23T22:21:54.400Z,4.20
2023-05-23T22:24:22.351Z,4.07
2023-05-23T22:26:50.361Z,3.90
2023-05-23T22:29:18.396Z,4.20
2023-05-23T22:31:46.883Z,4.13
2023-05-23T22:34:15.022Z,4.33
2023-05-23T22:36:44.316Z,3.67
2023-05-23T22:39:12.437Z,4.33
2023-05-23T22:41:40.706Z,4.23
2023-05-23T22:44:08.668Z,5.27
2023-05-23T22:46:36.681Z,4.07
2023-05-23T22:49:04.685Z,4.27
2023-05-23T22:51:34.187Z,4.40
2023-05-23T22:54:04.001Z,4.23
2023-05-23T22:56:31.948Z,4.50
2023-05-23T22:58:59.835Z,4.20
2023-05-23T23:01:27.901Z,4.40
2023-05-23T23:03:55.875Z,5.07
2023-05-23T23:06:23.798Z,4.70
2023-05-23T23:08:51.976Z,4.27
2023-05-23T23:11:21.963Z,4.43
2023-05-23T23:13:49.867Z,4.20
2023-05-23T23:16:19.636Z,4.33
2023-05-23T23:18:49.097Z,5.27
2023-05-23T23:21:17.161Z,5.27
2023-05-23T23:23:45.120Z,5.07
2023-05-23T23:26:13.318Z,5.10
2023-05-23T23:28:42.552Z,5.03
2023-05-23T23:31:10.627Z,4.97
2023-05-23T23:33:38.644Z,5.43
2023-05-23T23:36:07.314Z,4.70
2023-05-23T23:38:35.279Z,5.13
2023-05-23T23:41:03.292Z,5.03
2023-05-23T23:43:31.454Z,5.00
2023-05-23T23:46:00.748Z,4.73
2023-05-23T23:48:28.902Z,4.73
2023-05-23T23:50:57.077Z,4.93
2023-05-23T23:53:24.948Z,5.33
2023-05-23T23:55:52.874Z,4.63
2023-05-23T23:58:20.742Z,5.73
